GMMN

Mohammed V International Airport

Casablanca, Morocco
METAR GMMN 231300Z 35010KT 310V070 CAVOK 27/18 Q1017 NOSIG
Observed Flight Rules
Jul-23 @ 13:00 UTC (13 minutes ago) Visual Flight Rules
Wind Visibility Clouds
350° at 10 knots 10,000+ meters
  • Clear skies
Temperatures Readings
Current 27°C / 81°F
Dewpoint 18°C / 64°F
Humidity 58%
Altimeter 30.03" Hg
Pressure 1017 hPa
Elevation 206
METAR GMMN 231300Z 35010KT 310V070 CAVOK 27/18 Q1017 NOSIG
Observed Flight Rules
Jul-23 @ 13:00 UTC
(13 minutes ago)
VFR
Wind Visibility
350° at 10 knots 10,000+ meters
Clouds
  • Clear skies
Temperature Dewpoint
27°C / 81°F 18°C / 64°F
Humidity Altimeter Pressure
58% 30.03" Hg 1017 hPa